sensor_id;sensor_type;location;lat;lon;timestamp;P1;durP1;ratioP1;P2;durP2;ratioP2
15454;SDS011;21057;51.024;7.540;2022-12-29T00:00:02;27.87;;;26.17;;
15454;SDS011;21057;51.024;7.540;2022-12-29T00:02:30;28.17;;;26.47;;
15454;SDS011;21057;51.024;7.540;2022-12-29T00:04:57;27.43;;;25.63;;
15454;SDS011;21057;51.024;7.540;2022-12-29T00:07:24;28.67;;;26.90;;
15454;SDS011;21057;51.024;7.540;2022-12-29T00:09:52;29.47;;;27.43;;
15454;SDS011;21057;51.024;7.540;2022-12-29T00:12:19;28.80;;;27.10;;
15454;SDS011;21057;51.024;7.540;2022-12-29T00:14:45;28.63;;;26.93;;
15454;SDS011;21057;51.024;7.540;2022-12-29T00:17:30;27.40;;;25.80;;
15454;SDS011;21057;51.024;7.540;2022-12-29T00:19:57;27.30;;;25.70;;
15454;SDS011;21057;51.024;7.540;2022-12-29T00:22:41;27.10;;;25.50;;
15454;SDS011;21057;51.024;7.540;2022-12-29T00:25:27;27.20;;;25.60;;
15454;SDS011;21057;51.024;7.540;2022-12-29T00:28:11;28.77;;;26.97;;
15454;SDS011;21057;51.024;7.540;2022-12-29T00:30:58;29.23;;;27.43;;
15454;SDS011;21057;51.024;7.540;2022-12-29T00:33:43;28.33;;;26.57;;
15454;SDS011;21057;51.024;7.540;2022-12-29T00:36:28;26.70;;;25.10;;
15454;SDS011;21057;51.024;7.540;2022-12-29T00:38:59;27.33;;;25.73;;
15454;SDS011;21057;51.024;7.540;2022-12-29T00:41:50;27.87;;;26.27;;
15454;SDS011;21057;51.024;7.540;2022-12-29T00:44:35;28.07;;;26.37;;
15454;SDS011;21057;51.024;7.540;2022-12-29T00:47:01;27.77;;;26.07;;
15454;SDS011;21057;51.024;7.540;2022-12-29T00:49:29;27.13;;;25.53;;
15454;SDS011;21057;51.024;7.540;2022-12-29T00:51:56;28.63;;;26.83;;
15454;SDS011;21057;51.024;7.540;2022-12-29T00:54:24;28.97;;;27.27;;
15454;SDS011;21057;51.024;7.540;2022-12-29T00:56:53;28.17;;;26.47;;
15454;SDS011;21057;51.024;7.540;2022-12-29T00:59:19;27.50;;;25.90;;
15454;SDS011;21057;51.024;7.540;2022-12-29T01:01:49;26.67;;;25.07;;
15454;SDS011;21057;51.024;7.540;2022-12-29T01:04:16;27.07;;;25.47;;
15454;SDS011;21057;51.024;7.540;2022-12-29T01:06:43;27.63;;;26.03;;
15454;SDS011;21057;51.024;7.540;2022-12-29T01:09:10;27.23;;;25.60;;
15454;SDS011;21057;51.024;7.540;2022-12-29T01:11:56;29.93;;;28.07;;
15454;SDS011;21057;51.024;7.540;2022-12-29T01:14:24;27.57;;;25.67;;
15454;SDS011;21057;51.024;7.540;2022-12-29T01:16:51;28.73;;;27.03;;
15454;SDS011;21057;51.024;7.540;2022-12-29T01:19:19;27.00;;;25.40;;
15454;SDS011;21057;51.024;7.540;2022-12-29T01:21:46;26.77;;;25.07;;
15454;SDS011;21057;51.024;7.540;2022-12-29T01:24:13;26.80;;;25.20;;
15454;SDS011;21057;51.024;7.540;2022-12-29T01:26:41;27.33;;;25.63;;
15454;SDS011;21057;51.024;7.540;2022-12-29T01:29:09;28.57;;;26.87;;
15454;SDS011;21057;51.024;7.540;2022-12-29T01:31:36;27.97;;;26.27;;
15454;SDS011;21057;51.024;7.540;2022-12-29T01:34:03;28.83;;;27.13;;
15454;SDS011;21057;51.024;7.540;2022-12-29T01:36:30;27.10;;;25.50;;
15454;SDS011;21057;51.024;7.540;2022-12-29T01:38:57;27.13;;;25.43;;
15454;SDS011;21057;51.024;7.540;2022-12-29T01:41:24;27.90;;;26.20;;
15454;SDS011;21057;51.024;7.540;2022-12-29T01:43:52;27.50;;;25.90;;
15454;SDS011;21057;51.024;7.540;2022-12-29T01:46:24;28.93;;;27.23;;
15454;SDS011;21057;51.024;7.540;2022-12-29T01:48:54;27.73;;;26.13;;
15454;SDS011;21057;51.024;7.540;2022-12-29T01:51:24;29.17;;;27.47;;
15454;SDS011;21057;51.024;7.540;2022-12-29T01:53:54;27.97;;;26.30;;
15454;SDS011;21057;51.024;7.540;2022-12-29T01:56:23;28.30;;;26.60;;
15454;SDS011;21057;51.024;7.540;2022-12-29T01:59:02;29.03;;;27.33;;
15454;SDS011;21057;51.024;7.540;2022-12-29T02:01:33;28.03;;;26.37;;
15454;SDS011;21057;51.024;7.540;2022-12-29T02:04:01;27.83;;;26.13;;
15454;SDS011;21057;51.024;7.540;2022-12-29T02:06:28;26.17;;;24.57;;
15454;SDS011;21057;51.024;7.540;2022-12-29T02:08:59;26.47;;;24.87;;
15454;SDS011;21057;51.024;7.540;2022-12-29T02:11:26;27.30;;;25.50;;
15454;SDS011;21057;51.024;7.540;2022-12-29T02:13:55;28.43;;;26.73;;
15454;SDS011;21057;51.024;7.540;2022-12-29T02:16:37;27.20;;;25.60;;
15454;SDS011;21057;51.024;7.540;2022-12-29T02:19:29;26.60;;;25.00;;
15454;SDS011;21057;51.024;7.540;2022-12-29T02:22:32;26.77;;;25.17;;
15454;SDS011;21057;51.024;7.540;2022-12-29T02:25:18;26.67;;;24.97;;
15454;SDS011;21057;51.024;7.540;2022-12-29T02:28:08;25.87;;;24.33;;
15454;SDS011;21057;51.024;7.540;2022-12-29T02:31:04;25.43;;;23.83;;
15454;SDS011;21057;51.024;7.540;2022-12-29T02:33:47;26.53;;;24.93;;
15454;SDS011;21057;51.024;7.540;2022-12-29T02:36:23;26.20;;;24.60;;
15454;SDS011;21057;51.024;7.540;2022-12-29T02:38:59;25.90;;;24.30;;
15454;SDS011;21057;51.024;7.540;2022-12-29T02:41:31;26.23;;;24.53;;
15454;SDS011;21057;51.024;7.540;2022-12-29T02:44:01;27.33;;;25.73;;
15454;SDS011;21057;51.024;7.540;2022-12-29T02:46:37;26.07;;;24.57;;
15454;SDS011;21057;51.024;7.540;2022-12-29T02:49:10;25.10;;;23.60;;
15454;SDS011;21057;51.024;7.540;2022-12-29T02:51:42;26.27;;;24.77;;
15454;SDS011;21057;51.024;7.540;2022-12-29T02:54:16;26.00;;;24.40;;
15454;SDS011;21057;51.024;7.540;2022-12-29T02:57:01;26.87;;;25.27;;
15454;SDS011;21057;51.024;7.540;2022-12-29T02:59:28;26.43;;;24.90;;
15454;SDS011;21057;51.024;7.540;2022-12-29T03:02:02;26.63;;;25.03;;
15454;SDS011;21057;51.024;7.540;2022-12-29T03:07:43;25.07;;;23.57;;
15454;SDS011;21057;51.024;7.540;2022-12-29T03:10:20;26.87;;;25.07;;
15454;SDS011;21057;51.024;7.540;2022-12-29T03:12:54;27.73;;;26.07;;
15454;SDS011;21057;51.024;7.540;2022-12-29T03:15:55;26.67;;;25.17;;
15454;SDS011;21057;51.024;7.540;2022-12-29T03:18:36;26.67;;;25.17;;
15454;SDS011;21057;51.024;7.540;2022-12-29T03:21:11;26.27;;;24.77;;
15454;SDS011;21057;51.024;7.540;2022-12-29T03:23:42;26.20;;;24.70;;
15454;SDS011;21057;51.024;7.540;2022-12-29T03:26:12;25.67;;;24.17;;
15454;SDS011;21057;51.024;7.540;2022-12-29T03:28:43;25.30;;;23.80;;
15454;SDS011;21057;51.024;7.540;2022-12-29T03:31:14;25.73;;;24.23;;
15454;SDS011;21057;51.024;7.540;2022-12-29T03:33:45;25.93;;;24.43;;
15454;SDS011;21057;51.024;7.540;2022-12-29T03:36:15;26.00;;;24.33;;
15454;SDS011;21057;51.024;7.540;2022-12-29T03:38:46;24.63;;;23.23;;
15454;SDS011;21057;51.024;7.540;2022-12-29T03:41:20;25.37;;;23.77;;
15454;SDS011;21057;51.024;7.540;2022-12-29T03:43:49;25.03;;;23.63;;
15454;SDS011;21057;51.024;7.540;2022-12-29T03:46:16;24.77;;;23.37;;
15454;SDS011;21057;51.024;7.540;2022-12-29T03:48:44;25.33;;;23.73;;
15454;SDS011;21057;51.024;7.540;2022-12-29T03:51:11;24.87;;;23.37;;
15454;SDS011;21057;51.024;7.540;2022-12-29T03:53:38;25.57;;;24.07;;
15454;SDS011;21057;51.024;7.540;2022-12-29T03:56:05;25.50;;;24.00;;
15454;SDS011;21057;51.024;7.540;2022-12-29T03:58:32;25.00;;;23.50;;
15454;SDS011;21057;51.024;7.540;2022-12-29T04:00:59;25.93;;;24.43;;
15454;SDS011;21057;51.024;7.540;2022-12-29T04:03:26;26.73;;;25.03;;
15454;SDS011;21057;51.024;7.540;2022-12-29T04:05:54;25.43;;;23.97;;
15454;SDS011;21057;51.024;7.540;2022-12-29T04:08:21;25.67;;;24.17;;
15454;SDS011;21057;51.024;7.540;2022-12-29T04:10:48;26.03;;;24.53;;
15454;SDS011;21057;51.024;7.540;2022-12-29T04:13:15;25.20;;;23.70;;
15454;SDS011;21057;51.024;7.540;2022-12-29T04:15:42;24.93;;;23.43;;
15454;SDS011;21057;51.024;7.540;2022-12-29T04:18:10;25.77;;;24.27;;
15454;SDS011;21057;51.024;7.540;2022-12-29T04:20:37;26.43;;;24.90;;
15454;SDS011;21057;51.024;7.540;2022-12-29T04:23:22;26.53;;;25.00;;
15454;SDS011;21057;51.024;7.540;2022-12-29T04:25:49;26.77;;;25.17;;
15454;SDS011;21057;51.024;7.540;2022-12-29T04:28:17;26.80;;;25.20;;
15454;SDS011;21057;51.024;7.540;2022-12-29T04:30:44;26.73;;;25.10;;
15454;SDS011;21057;51.024;7.540;2022-12-29T04:33:11;27.03;;;25.43;;
15454;SDS011;21057;51.024;7.540;2022-12-29T04:35:38;26.43;;;24.83;;
15454;SDS011;21057;51.024;7.540;2022-12-29T04:38:05;26.60;;;25.00;;
15454;SDS011;21057;51.024;7.540;2022-12-29T04:40:33;26.53;;;24.93;;
15454;SDS011;21057;51.024;7.540;2022-12-29T04:43:00;29.23;;;27.53;;
15454;SDS011;21057;51.024;7.540;2022-12-29T04:45:27;27.17;;;25.57;;
15454;SDS011;21057;51.024;7.540;2022-12-29T04:47:54;25.43;;;23.93;;
15454;SDS011;21057;51.024;7.540;2022-12-29T04:50:21;27.73;;;26.07;;
15454;SDS011;21057;51.024;7.540;2022-12-29T04:52:48;26.93;;;25.33;;
15454;SDS011;21057;51.024;7.540;2022-12-29T04:55:14;26.67;;;25.07;;
15454;SDS011;21057;51.024;7.540;2022-12-29T04:57:43;26.07;;;24.47;;
15454;SDS011;21057;51.024;7.540;2022-12-29T05:00:10;26.50;;;25.00;;
15454;SDS011;21057;51.024;7.540;2022-12-29T05:02:38;25.70;;;24.13;;
15454;SDS011;21057;51.024;7.540;2022-12-29T05:05:05;25.80;;;24.30;;
15454;SDS011;21057;51.024;7.540;2022-12-29T05:07:32;26.37;;;24.87;;
15454;SDS011;21057;51.024;7.540;2022-12-29T05:09:59;26.10;;;24.60;;
15454;SDS011;21057;51.024;7.540;2022-12-29T05:12:29;26.23;;;24.73;;
15454;SDS011;21057;51.024;7.540;2022-12-29T05:14:58;27.07;;;25.20;;
15454;SDS011;21057;51.024;7.540;2022-12-29T05:17:25;25.60;;;24.10;;
15454;SDS011;21057;51.024;7.540;2022-12-29T05:19:52;24.80;;;23.40;;
15454;SDS011;21057;51.024;7.540;2022-12-29T05:22:19;24.90;;;23.50;;
15454;SDS011;21057;51.024;7.540;2022-12-29T05:24:46;25.40;;;23.90;;
15454;SDS011;21057;51.024;7.540;2022-12-29T05:27:12;25.93;;;24.43;;
15454;SDS011;21057;51.024;7.540;2022-12-29T05:29:39;27.50;;;26.00;;
15454;SDS011;21057;51.024;7.540;2022-12-29T05:32:08;27.07;;;25.57;;
15454;SDS011;21057;51.024;7.540;2022-12-29T05:34:34;26.33;;;24.73;;
15454;SDS011;21057;51.024;7.540;2022-12-29T05:37:01;27.00;;;25.50;;
15454;SDS011;21057;51.024;7.540;2022-12-29T05:39:28;26.57;;;25.07;;
15454;SDS011;21057;51.024;7.540;2022-12-29T05:41:55;27.60;;;26.03;;
15454;SDS011;21057;51.024;7.540;2022-12-29T05:44:22;27.30;;;25.70;;
15454;SDS011;21057;51.024;7.540;2022-12-29T05:46:49;27.40;;;25.80;;
15454;SDS011;21057;51.024;7.540;2022-12-29T05:49:17;26.90;;;25.30;;
15454;SDS011;21057;51.024;7.540;2022-12-29T05:51:44;26.53;;;25.03;;
15454;SDS011;21057;51.024;7.540;2022-12-29T05:54:11;26.27;;;24.77;;
15454;SDS011;21057;51.024;7.540;2022-12-29T05:56:38;27.67;;;25.87;;
15454;SDS011;21057;51.024;7.540;2022-12-29T05:59:05;27.37;;;25.73;;
15454;SDS011;21057;51.024;7.540;2022-12-29T06:01:31;28.70;;;27.10;;
15454;SDS011;21057;51.024;7.540;2022-12-29T06:03:59;30.43;;;28.73;;
15454;SDS011;21057;51.024;7.540;2022-12-29T06:06:27;31.20;;;29.40;;
15454;SDS011;21057;51.024;7.540;2022-12-29T06:08:54;28.80;;;27.20;;
15454;SDS011;21057;51.024;7.540;2022-12-29T06:11:21;28.50;;;26.90;;
15454;SDS011;21057;51.024;7.540;2022-12-29T06:13:48;27.47;;;25.87;;
15454;SDS011;21057;51.024;7.540;2022-12-29T06:16:15;26.03;;;24.53;;
15454;SDS011;21057;51.024;7.540;2022-12-29T06:18:41;26.83;;;25.30;;
15454;SDS011;21057;51.024;7.540;2022-12-29T06:21:08;26.57;;;24.97;;
15454;SDS011;21057;51.024;7.540;2022-12-29T06:23:36;26.53;;;25.03;;
15454;SDS011;21057;51.024;7.540;2022-12-29T06:26:03;25.67;;;24.17;;
15454;SDS011;21057;51.024;7.540;2022-12-29T06:28:30;25.97;;;24.47;;
15454;SDS011;21057;51.024;7.540;2022-12-29T06:30:57;25.20;;;23.70;;
15454;SDS011;21057;51.024;7.540;2022-12-29T06:33:24;30.00;;;28.40;;
15454;SDS011;21057;51.024;7.540;2022-12-29T06:35:51;31.07;;;29.37;;
15454;SDS011;21057;51.024;7.540;2022-12-29T06:38:17;32.07;;;30.13;;
15454;SDS011;21057;51.024;7.540;2022-12-29T06:40:46;30.40;;;28.70;;
15454;SDS011;21057;51.024;7.540;2022-12-29T06:43:12;30.73;;;28.73;;
15454;SDS011;21057;51.024;7.540;2022-12-29T06:45:39;27.03;;;25.43;;
15454;SDS011;21057;51.024;7.540;2022-12-29T06:48:06;27.47;;;25.73;;
15454;SDS011;21057;51.024;7.540;2022-12-29T06:50:33;26.87;;;25.27;;
15454;SDS011;21057;51.024;7.540;2022-12-29T06:53:00;27.40;;;25.80;;
15454;SDS011;21057;51.024;7.540;2022-12-29T06:55:27;28.63;;;26.93;;
15454;SDS011;21057;51.024;7.540;2022-12-29T06:57:55;30.13;;;28.43;;
15454;SDS011;21057;51.024;7.540;2022-12-29T07:00:23;27.83;;;26.23;;
15454;SDS011;21057;51.024;7.540;2022-12-29T07:02:51;28.77;;;26.97;;
15454;SDS011;21057;51.024;7.540;2022-12-29T07:05:17;26.77;;;25.27;;
15454;SDS011;21057;51.024;7.540;2022-12-29T07:07:44;27.73;;;26.13;;
15454;SDS011;21057;51.024;7.540;2022-12-29T07:10:11;28.50;;;26.83;;
15454;SDS011;21057;51.024;7.540;2022-12-29T07:12:38;28.67;;;26.83;;
15454;SDS011;21057;51.024;7.540;2022-12-29T07:15:07;28.97;;;27.17;;
15454;SDS011;21057;51.024;7.540;2022-12-29T07:17:34;26.97;;;25.37;;
15454;SDS011;21057;51.024;7.540;2022-12-29T07:20:01;28.07;;;26.47;;
15454;SDS011;21057;51.024;7.540;2022-12-29T07:22:27;27.70;;;26.10;;
15454;SDS011;21057;51.024;7.540;2022-12-29T07:24:54;26.70;;;25.10;;
15454;SDS011;21057;51.024;7.540;2022-12-29T07:27:22;27.70;;;26.00;;
15454;SDS011;21057;51.024;7.540;2022-12-29T07:29:49;27.70;;;26.10;;
15454;SDS011;21057;51.024;7.540;2022-12-29T07:32:18;27.87;;;26.27;;
15454;SDS011;21057;51.024;7.540;2022-12-29T07:34:45;26.63;;;25.13;;
15454;SDS011;21057;51.024;7.540;2022-12-29T07:37:12;26.73;;;25.03;;
15454;SDS011;21057;51.024;7.540;2022-12-29T07:39:40;25.93;;;24.43;;
15454;SDS011;21057;51.024;7.540;2022-12-29T07:42:08;24.93;;;23.43;;
15454;SDS011;21057;51.024;7.540;2022-12-29T07:44:34;26.07;;;24.47;;
15454;SDS011;21057;51.024;7.540;2022-12-29T07:47:01;24.90;;;23.50;;
15454;SDS011;21057;51.024;7.540;2022-12-29T07:49:30;25.10;;;23.60;;
15454;SDS011;21057;51.024;7.540;2022-12-29T07:51:56;24.90;;;23.50;;
15454;SDS011;21057;51.024;7.540;2022-12-29T07:54:23;25.90;;;24.40;;
15454;SDS011;21057;51.024;7.540;2022-12-29T07:56:50;24.17;;;22.67;;
15454;SDS011;21057;51.024;7.540;2022-12-29T07:59:17;24.43;;;23.03;;
15454;SDS011;21057;51.024;7.540;2022-12-29T08:01:44;23.70;;;22.30;;
15454;SDS011;21057;51.024;7.540;2022-12-29T08:04:11;23.83;;;22.43;;
15454;SDS011;21057;51.024;7.540;2022-12-29T08:06:39;23.07;;;21.67;;
15454;SDS011;21057;51.024;7.540;2022-12-29T08:09:06;25.77;;;24.37;;
15454;SDS011;21057;51.024;7.540;2022-12-29T08:11:34;27.10;;;25.60;;
15454;SDS011;21057;51.024;7.540;2022-12-29T08:14:01;26.23;;;24.80;;
15454;SDS011;21057;51.024;7.540;2022-12-29T08:16:28;26.13;;;24.53;;
15454;SDS011;21057;51.024;7.540;2022-12-29T08:18:56;25.03;;;23.70;;
15454;SDS011;21057;51.024;7.540;2022-12-29T08:21:23;27.70;;;26.20;;
15454;SDS011;21057;51.024;7.540;2022-12-29T08:23:52;25.60;;;24.20;;
15454;SDS011;21057;51.024;7.540;2022-12-29T08:26:19;25.70;;;24.30;;
15454;SDS011;21057;51.024;7.540;2022-12-29T08:28:45;27.20;;;25.60;;
15454;SDS011;21057;51.024;7.540;2022-12-29T08:31:12;28.37;;;26.83;;
15454;SDS011;21057;51.024;7.540;2022-12-29T08:33:39;24.37;;;22.77;;
15454;SDS011;21057;51.024;7.540;2022-12-29T08:36:06;24.73;;;23.33;;
15454;SDS011;21057;51.024;7.540;2022-12-29T08:38:34;24.33;;;23.03;;
15454;SDS011;21057;51.024;7.540;2022-12-29T08:41:02;23.93;;;22.63;;
15454;SDS011;21057;51.024;7.540;2022-12-29T08:43:29;24.87;;;22.90;;
15454;SDS011;21057;51.024;7.540;2022-12-29T08:45:57;23.63;;;21.90;;
15454;SDS011;21057;51.024;7.540;2022-12-29T08:48:24;24.33;;;22.67;;
15454;SDS011;21057;51.024;7.540;2022-12-29T08:50:53;25.10;;;23.33;;
15454;SDS011;21057;51.024;7.540;2022-12-29T08:53:20;22.53;;;21.23;;
15454;SDS011;21057;51.024;7.540;2022-12-29T08:55:47;24.27;;;22.87;;
15454;SDS011;21057;51.024;7.540;2022-12-29T08:58:23;23.67;;;22.33;;
15454;SDS011;21057;51.024;7.540;2022-12-29T09:00:51;22.43;;;21.13;;
15454;SDS011;21057;51.024;7.540;2022-12-29T09:03:18;23.60;;;22.23;;
15454;SDS011;21057;51.024;7.540;2022-12-29T09:05:47;24.23;;;22.83;;
15454;SDS011;21057;51.024;7.540;2022-12-29T09:08:14;23.90;;;22.50;;
15454;SDS011;21057;51.024;7.540;2022-12-29T09:10:41;23.63;;;22.23;;
15454;SDS011;21057;51.024;7.540;2022-12-29T09:13:08;24.13;;;22.73;;
15454;SDS011;21057;51.024;7.540;2022-12-29T09:15:36;24.33;;;22.67;;
15454;SDS011;21057;51.024;7.540;2022-12-29T09:18:03;24.23;;;22.73;;
15454;SDS011;21057;51.024;7.540;2022-12-29T09:20:30;23.77;;;22.17;;
15454;SDS011;21057;51.024;7.540;2022-12-29T09:22:57;24.50;;;23.10;;
15454;SDS011;21057;51.024;7.540;2022-12-29T09:25:24;24.43;;;23.00;;
15454;SDS011;21057;51.024;7.540;2022-12-29T09:27:51;24.63;;;23.10;;
15454;SDS011;21057;51.024;7.540;2022-12-29T09:30:19;25.30;;;23.80;;
15454;SDS011;21057;51.024;7.540;2022-12-29T09:32:49;25.23;;;23.70;;
15454;SDS011;21057;51.024;7.540;2022-12-29T09:35:16;25.80;;;24.30;;
15454;SDS011;21057;51.024;7.540;2022-12-29T09:37:43;25.60;;;24.10;;
15454;SDS011;21057;51.024;7.540;2022-12-29T09:40:16;24.03;;;22.43;;
15454;SDS011;21057;51.024;7.540;2022-12-29T09:42:55;24.00;;;22.60;;
15454;SDS011;21057;51.024;7.540;2022-12-29T09:45:35;24.20;;;22.33;;
15454;SDS011;21057;51.024;7.540;2022-12-29T09:48:10;24.97;;;23.20;;
15454;SDS011;21057;51.024;7.540;2022-12-29T09:50:40;23.73;;;22.43;;
15454;SDS011;21057;51.024;7.540;2022-12-29T09:53:11;22.73;;;21.43;;
15454;SDS011;21057;51.024;7.540;2022-12-29T09:55:44;21.17;;;19.87;;
15454;SDS011;21057;51.024;7.540;2022-12-29T09:58:15;21.43;;;20.23;;
15454;SDS011;21057;51.024;7.540;2022-12-29T10:00:59;20.90;;;19.67;;
15454;SDS011;21057;51.024;7.540;2022-12-29T10:03:35;22.10;;;20.60;;
15454;SDS011;21057;51.024;7.540;2022-12-29T10:06:12;20.33;;;19.23;;
15454;SDS011;21057;51.024;7.540;2022-12-29T10:08:42;20.90;;;19.70;;
15454;SDS011;21057;51.024;7.540;2022-12-29T10:11:19;22.00;;;20.70;;
15454;SDS011;21057;51.024;7.540;2022-12-29T10:14:10;21.13;;;19.90;;
15454;SDS011;21057;51.024;7.540;2022-12-29T10:16:50;21.33;;;19.87;;
15454;SDS011;21057;51.024;7.540;2022-12-29T10:19:28;21.80;;;20.40;;
15454;SDS011;21057;51.024;7.540;2022-12-29T10:22:27;20.10;;;18.83;;
15454;SDS011;21057;51.024;7.540;2022-12-29T10:25:02;19.50;;;18.40;;
15454;SDS011;21057;51.024;7.540;2022-12-29T10:27:38;20.00;;;18.80;;
15454;SDS011;21057;51.024;7.540;2022-12-29T10:30:10;19.50;;;18.40;;
15454;SDS011;21057;51.024;7.540;2022-12-29T10:32:39;19.30;;;18.20;;
15454;SDS011;21057;51.024;7.540;2022-12-29T10:35:12;19.13;;;18.03;;
15454;SDS011;21057;51.024;7.540;2022-12-29T10:37:43;20.03;;;18.83;;
15454;SDS011;21057;51.024;7.540;2022-12-29T10:40:17;20.40;;;19.00;;
15454;SDS011;21057;51.024;7.540;2022-12-29T10:42:50;19.77;;;18.00;;
15454;SDS011;21057;51.024;7.540;2022-12-29T10:45:19;19.77;;;18.67;;
15454;SDS011;21057;51.024;7.540;2022-12-29T10:47:50;19.10;;;18.00;;
15454;SDS011;21057;51.024;7.540;2022-12-29T10:50:23;21.30;;;20.00;;
15454;SDS011;21057;51.024;7.540;2022-12-29T10:52:51;19.97;;;18.80;;
15454;SDS011;21057;51.024;7.540;2022-12-29T10:55:19;19.90;;;18.73;;
15454;SDS011;21057;51.024;7.540;2022-12-29T10:57:48;19.97;;;18.87;;
15454;SDS011;21057;51.024;7.540;2022-12-29T11:00:17;20.53;;;19.03;;
15454;SDS011;21057;51.024;7.540;2022-12-29T11:02:49;19.77;;;18.67;;
15454;SDS011;21057;51.024;7.540;2022-12-29T11:05:36;18.87;;;17.67;;
15454;SDS011;21057;51.024;7.540;2022-12-29T11:08:08;19.33;;;18.23;;
15454;SDS011;21057;51.024;7.540;2022-12-29T11:10:39;20.50;;;19.20;;
15454;SDS011;21057;51.024;7.540;2022-12-29T11:13:11;19.60;;;18.40;;
15454;SDS011;21057;51.024;7.540;2022-12-29T11:15:41;19.40;;;18.10;;
15454;SDS011;21057;51.024;7.540;2022-12-29T11:18:19;19.17;;;17.90;;
15454;SDS011;21057;51.024;7.540;2022-12-29T11:20:50;20.27;;;18.67;;
15454;SDS011;21057;51.024;7.540;2022-12-29T11:23:23;18.63;;;17.47;;
15454;SDS011;21057;51.024;7.540;2022-12-29T11:26:05;20.23;;;18.30;;
15454;SDS011;21057;51.024;7.540;2022-12-29T11:28:44;19.67;;;18.37;;
15454;SDS011;21057;51.024;7.540;2022-12-29T11:31:15;19.43;;;18.17;;
15454;SDS011;21057;51.024;7.540;2022-12-29T11:33:43;19.57;;;18.20;;
15454;SDS011;21057;51.024;7.540;2022-12-29T11:36:13;19.03;;;18.00;;
15454;SDS011;21057;51.024;7.540;2022-12-29T11:38:42;19.93;;;18.80;;
15454;SDS011;21057;51.024;7.540;2022-12-29T11:41:18;19.97;;;18.77;;
15454;SDS011;21057;51.024;7.540;2022-12-29T11:43:48;20.20;;;18.93;;
15454;SDS011;21057;51.024;7.540;2022-12-29T11:46:16;18.60;;;17.60;;
15454;SDS011;21057;51.024;7.540;2022-12-29T11:48:45;21.73;;;20.53;;
15454;SDS011;21057;51.024;7.540;2022-12-29T11:51:21;21.97;;;20.70;;
15454;SDS011;21057;51.024;7.540;2022-12-29T11:53:50;21.30;;;20.10;;
15454;SDS011;21057;51.024;7.540;2022-12-29T11:56:20;21.80;;;20.37;;
15454;SDS011;21057;51.024;7.540;2022-12-29T11:58:56;18.93;;;17.83;;
15454;SDS011;21057;51.024;7.540;2022-12-29T12:01:25;19.27;;;18.07;;
15454;SDS011;21057;51.024;7.540;2022-12-29T12:04:00;19.53;;;18.43;;
15454;SDS011;21057;51.024;7.540;2022-12-29T12:06:32;19.70;;;18.30;;
15454;SDS011;21057;51.024;7.540;2022-12-29T12:09:02;20.13;;;18.83;;
15454;SDS011;21057;51.024;7.540;2022-12-29T12:11:34;20.03;;;18.93;;
15454;SDS011;21057;51.024;7.540;2022-12-29T12:14:04;20.93;;;19.63;;
15454;SDS011;21057;51.024;7.540;2022-12-29T12:16:41;20.50;;;19.40;;
15454;SDS011;21057;51.024;7.540;2022-12-29T12:19:13;20.50;;;18.90;;
15454;SDS011;21057;51.024;7.540;2022-12-29T12:21:51;20.03;;;18.83;;
15454;SDS011;21057;51.024;7.540;2022-12-29T12:24:34;20.63;;;19.50;;
15454;SDS011;21057;51.024;7.540;2022-12-29T12:27:09;17.87;;;16.77;;
15454;SDS011;21057;51.024;7.540;2022-12-29T12:29:41;17.97;;;16.97;;
15454;SDS011;21057;51.024;7.540;2022-12-29T12:32:13;19.10;;;18.00;;
15454;SDS011;21057;51.024;7.540;2022-12-29T12:34:43;20.73;;;19.43;;
15454;SDS011;21057;51.024;7.540;2022-12-29T12:43:10;20.40;;;19.10;;
15454;SDS011;21057;51.024;7.540;2022-12-29T12:45:50;20.40;;;19.30;;
15454;SDS011;21057;51.024;7.540;2022-12-29T12:48:36;22.17;;;20.77;;
15454;SDS011;21057;51.024;7.540;2022-12-29T12:51:18;20.43;;;18.73;;
15454;SDS011;21057;51.024;7.540;2022-12-29T12:54:03;19.57;;;18.53;;
15454;SDS011;21057;51.024;7.540;2022-12-29T12:56:43;19.23;;;18.23;;
15454;SDS011;21057;51.024;7.540;2022-12-29T12:59:23;20.10;;;18.33;;
15454;SDS011;21057;51.024;7.540;2022-12-29T13:02:01;18.20;;;17.20;;
15454;SDS011;21057;51.024;7.540;2022-12-29T13:07:36;19.43;;;18.43;;
15454;SDS011;21057;51.024;7.540;2022-12-29T13:10:19;18.20;;;17.20;;
15454;SDS011;21057;51.024;7.540;2022-12-29T13:12:55;19.37;;;18.27;;
15454;SDS011;21057;51.024;7.540;2022-12-29T13:15:40;19.33;;;18.23;;
15454;SDS011;21057;51.024;7.540;2022-12-29T13:18:15;19.83;;;18.60;;
15454;SDS011;21057;51.024;7.540;2022-12-29T13:20:50;18.57;;;17.53;;
15454;SDS011;21057;51.024;7.540;2022-12-29T13:23:22;18.43;;;17.33;;
15454;SDS011;21057;51.024;7.540;2022-12-29T13:25:57;20.50;;;19.30;;
15454;SDS011;21057;51.024;7.540;2022-12-29T13:28:33;20.40;;;19.17;;
15454;SDS011;21057;51.024;7.540;2022-12-29T13:31:12;21.37;;;19.63;;
15454;SDS011;21057;51.024;7.540;2022-12-29T13:33:47;20.50;;;19.30;;
15454;SDS011;21057;51.024;7.540;2022-12-29T13:36:23;20.10;;;18.93;;
15454;SDS011;21057;51.024;7.540;2022-12-29T13:38:55;20.43;;;19.00;;
15454;SDS011;21057;51.024;7.540;2022-12-29T13:41:30;21.03;;;19.77;;
15454;SDS011;21057;51.024;7.540;2022-12-29T13:44:01;19.83;;;18.73;;
15454;SDS011;21057;51.024;7.540;2022-12-29T13:46:31;18.93;;;17.63;;
15454;SDS011;21057;51.024;7.540;2022-12-29T13:49:04;19.77;;;18.33;;
15454;SDS011;21057;51.024;7.540;2022-12-29T13:51:36;19.37;;;17.90;;
15454;SDS011;21057;51.024;7.540;2022-12-29T13:54:14;19.33;;;18.13;;
15454;SDS011;21057;51.024;7.540;2022-12-29T13:56:52;18.87;;;17.77;;
15454;SDS011;21057;51.024;7.540;2022-12-29T13:59:29;19.33;;;18.13;;
15454;SDS011;21057;51.024;7.540;2022-12-29T14:02:08;19.20;;;18.10;;
15454;SDS011;21057;51.024;7.540;2022-12-29T14:04:54;19.57;;;17.90;;
15454;SDS011;21057;51.024;7.540;2022-12-29T14:07:23;19.60;;;18.50;;
15454;SDS011;21057;51.024;7.540;2022-12-29T14:09:50;19.87;;;18.67;;
15454;SDS011;21057;51.024;7.540;2022-12-29T14:12:21;19.40;;;18.07;;
15454;SDS011;21057;51.024;7.540;2022-12-29T14:15:01;18.73;;;17.43;;
15454;SDS011;21057;51.024;7.540;2022-12-29T14:17:30;19.17;;;17.77;;
15454;SDS011;21057;51.024;7.540;2022-12-29T14:19:57;22.37;;;20.93;;
15454;SDS011;21057;51.024;7.540;2022-12-29T14:22:24;22.47;;;21.17;;
15454;SDS011;21057;51.024;7.540;2022-12-29T14:24:52;20.47;;;19.37;;
15454;SDS011;21057;51.024;7.540;2022-12-29T14:33:18;19.37;;;18.17;;
15454;SDS011;21057;51.024;7.540;2022-12-29T14:35:47;21.13;;;19.73;;
15454;SDS011;21057;51.024;7.540;2022-12-29T14:38:18;20.70;;;19.57;;
15454;SDS011;21057;51.024;7.540;2022-12-29T14:40:48;21.47;;;20.20;;
15454;SDS011;21057;51.024;7.540;2022-12-29T14:43:20;21.97;;;20.63;;
15454;SDS011;21057;51.024;7.540;2022-12-29T14:45:52;21.03;;;19.87;;
15454;SDS011;21057;51.024;7.540;2022-12-29T14:48:33;21.40;;;20.20;;
15454;SDS011;21057;51.024;7.540;2022-12-29T14:51:20;20.53;;;19.23;;
15454;SDS011;21057;51.024;7.540;2022-12-29T14:53:54;21.93;;;20.60;;
15454;SDS011;21057;51.024;7.540;2022-12-29T14:56:24;21.20;;;19.87;;
15454;SDS011;21057;51.024;7.540;2022-12-29T14:58:54;21.23;;;19.80;;
15454;SDS011;21057;51.024;7.540;2022-12-29T15:01:25;23.10;;;21.70;;